Map

Track Data

SID SEASON NUMBER BASIN SUBBASIN NAME ISO_TIME NATURE LAT LON WMO_WIND WMO_PRES WMO_AGENCY TRACK_TYPE DIST2LAND LANDFALL IFLAG USA_AGENCY USA_ATCF_ID USA_LAT USA_LON USA_RECORD USA_STATUS USA_WIND USA_PRES USA_SSHS USA_R34_NE USA_R34_SE USA_R34_SW USA_R34_NW USA_R50_NE USA_R50_SE USA_R50_SW USA_R50_NW USA_R64_NE USA_R64_SE USA_R64_SW USA_R64_NW USA_POCI USA_ROCI USA_RMW USA_EYE TOKYO_LAT TOKYO_LON TOKYO_GRADE TOKYO_WIND TOKYO_PRES TOKYO_R50_DIR TOKYO_R50_LONG TOKYO_R50_SHORT TOKYO_R30_DIR TOKYO_R30_LONG TOKYO_R30_SHORT TOKYO_LAND CMA_LAT CMA_LON CMA_CAT CMA_WIND CMA_PRES HKO_LAT HKO_LON HKO_CAT HKO_WIND HKO_PRES NEWDELHI_LAT NEWDELHI_LON NEWDELHI_GRADE NEWDELHI_WIND NEWDELHI_PRES NEWDELHI_CI NEWDELHI_DP NEWDELHI_POCI REUNION_LAT REUNION_LON REUNION_TYPE REUNION_WIND REUNION_PRES REUNION_TNUM REUNION_CI REUNION_RMW REUNION_R34_NE REUNION_R34_SE REUNION_R34_SW REUNION_R34_NW REUNION_R50_NE REUNION_R50_SE REUNION_R50_SW REUNION_R50_NW REUNION_R64_NE REUNION_R64_SE REUNION_R64_SW REUNION_R64_NW BOM_LAT BOM_LON BOM_TYPE BOM_WIND BOM_PRES BOM_TNUM BOM_CI BOM_RMW BOM_R34_NE BOM_R34_SE BOM_R34_SW BOM_R34_NW BOM_R50_NE BOM_R50_SE BOM_R50_SW BOM_R50_NW BOM_R64_NE BOM_R64_SE BOM_R64_SW BOM_R64_NW BOM_ROCI BOM_POCI BOM_EYE BOM_POS_METHOD BOM_PRES_METHOD NADI_LAT NADI_LON NADI_CAT NADI_WIND NADI_PRES WELLINGTON_LAT WELLINGTON_LON WELLINGTON_WIND WELLINGTON_PRES DS824_LAT DS824_LON DS824_STAGE DS824_WIND DS824_PRES TD9636_LAT TD9636_LON TD9636_STAGE TD9636_WIND TD9636_PRES TD9635_LAT TD9635_LON TD9635_WIND TD9635_PRES TD9635_ROCI NEUMANN_LAT NEUMANN_LON NEUMANN_CLASS NEUMANN_WIND NEUMANN_PRES MLC_LAT MLC_LON MLC_CLASS MLC_WIND MLC_PRES USA_GUST BOM_GUST BOM_GUST_PER REUNION_GUST REUNION_GUST_PER USA_SEAHGT USA_SEARAD_NE USA_SEARAD_SE USA_SEARAD_SW USA_SEARAD_NW STORM_SPEED STORM_DIR
1935290N10083 1935 60 NI BB NOT_NAMED 1935-10-17 00:00:00 TS 9.70000 83.0000 main 227 227 _________O____ -1 9.70000 83.0000 TC 30 4 354
1935290N10083 1935 60 NI BB NOT_NAMED 1935-10-17 03:00:00 TS 9.90833 82.9733 main 239 236 _________PO___ -1 10.0125 82.9600 TC 31 9.70000 83.0000 1 5 349
1935290N10083 1935 60 NI BB NOT_NAMED 1935-10-17 06:00:00 TS 10.1689 82.9014 main 251 246 _________OP___ -1 10.3000 82.9000 TC 32 9.97220 82.9036 1 5 343
1935290N10083 1935 60 NI BB NOT_NAMED 1935-10-17 09:00:00 TS 10.4195 82.8110 main 251 251 _________PP___ -1 10.5500 82.8075 TC 33 10.2455 82.8156 1 5 340
1935290N10083 1935 60 NI BB NOT_NAMED 1935-10-17 12:00:00 TS 10.6605 82.7224 main 260 260 _________OP___ -1 10.8000 82.7000 TC 34 10.5211 82.7449 1 6 344
1935290N10083 1935 60 NI BB NOT_NAMED 1935-10-17 15:00:00 TS 10.9500 82.6575 main 274 274 _________PO___ -1 11.1000 82.6150 TC 36 10.8000 82.7000 2 6 347
1935290N10083 1935 60 NI BB NOT_NAMED 1935-10-17 18:00:00 TS 11.2412 82.5882 main 290 274 _________OP___ -1 11.4000 82.5000 TC 39 11.0823 82.6765 2 6 345
1935290N10083 1935 60 NI BB NOT_NAMED 1935-10-17 21:00:00 TS 11.5066 82.5068 main 274 241 _________PP___ -1 11.6497 82.3972 TC 42 11.3635 82.6163 2 6 330
1935290N10083 1935 60 NI BB NOT_NAMED 1935-10-18 00:00:00 TS 11.7690 82.2741 main 241 182 _________OP___ -1 11.9000 82.1000 TC 45 11.6380 82.4481 2 9 308
1935290N10083 1935 60 NI BB NOT_NAMED 1935-10-18 03:00:00 TS 12.0576 81.7739 main 179 100 _________PO___ -1 12.2152 81.4478 TC 41 11.9000 82.1000 3 13 295
1935290N10083 1935 60 NI BB NOT_NAMED 1935-10-18 06:00:00 TS 12.3243 81.0416 main 89 10 _________OP___ -1 12.5000 80.6000 TC 37 12.1486 81.4832 3 16 287
1935290N10083 1935 60 NI BB NOT_NAMED 1935-10-18 09:00:00 TS 12.5232 80.2337 main 0 0 _________PP___ -1 12.6647 79.7796 TC 33 12.3816 80.6878 3 17 283
1935290N10083 1935 60 NI BB NOT_NAMED 1935-10-18 12:00:00 TS 12.6993 79.3493 main 0 0 _________OP___ -1 12.8000 78.9000 TC 30 12.5986 79.7985 3 18 282
1935290N10083 1935 60 NI BB NOT_NAMED 1935-10-18 15:00:00 TS 12.9002 78.4063 main 0 0 _________PO___ -1 13.0003 77.9127 TC 30 12.8000 78.9000 1 19 283
1935290N10083 1935 60 NI AS NOT_NAMED 1935-10-18 18:00:00 TS 13.1094 77.4963 main 0 0 _________OP___ -1 13.2000 77.0000 TC 30 13.0188 77.9926 1 17 283
1935290N10083 1935 60 NI AS NOT_NAMED 1935-10-18 21:00:00 TS 13.2994 76.6842 main 0 0 _________PP___ -1 13.3798 76.2575 TC 30 13.2191 77.1109 1 14 284
1935290N10083 1935 60 NI AS NOT_NAMED 1935-10-19 00:00:00 TS 13.4423 76.0744 main 0 0 _________OP___ -1 13.5000 75.8000 TC 30 13.3846 76.3487 1 9 283
1935290N10083 1935 60 NI AS NOT_NAMED 1935-10-19 03:00:00 TS 13.5111 75.7549 main 0 0 _________PO___ -1 13.5223 75.7099 TC 30 13.5000 75.8000 1 4 282
1935290N10083 1935 60 NI AS NOT_NAMED 1935-10-19 06:00:00 TS 13.5244 75.6883 main 0 0 _________OP___ -1 13.5000 75.8000 TC 30 13.5488 75.5766 1 1 282
1935290N10083 1935 60 NI AS NOT_NAMED 1935-10-19 09:00:00 TS 13.5255 75.6835 main 0 0 _________PP___ -1 13.5000 75.8000 TC 30 13.5510 75.5669 1 0 106
1935290N10083 1935 60 NI AS NOT_NAMED 1935-10-19 12:00:00 TS 13.5138 75.7369 main 0 0 _________OP___ -1 13.5000 75.8000 TC 30 13.5276 75.6738 1 1 103
1935290N10083 1935 60 NI AS NOT_NAMED 1935-10-19 15:00:00 TS 13.5000 75.8000 main 0 0 _________PO___ -1 13.5000 75.8000 TC 30 13.5000 75.8000 1 1 106
1935290N10083 1935 60 NI AS NOT_NAMED 1935-10-19 18:00:00 TS 13.4897 75.8304 main 0 0 _________OP___ -1 13.5000 75.8000 TC 30 13.4795 75.8608 1 1 110
1935290N10083 1935 60 NI AS NOT_NAMED 1935-10-19 21:00:00 TS 13.4735 75.8786 main 0 0 _________PP___ -1 13.4849 75.8450 TC 30 13.4621 75.9122 1 0 0
1935290N10083 1935 60 NI AS NOT_NAMED 1935-10-20 00:00:00 TS 13.4819 75.8538 main 0 0 _________OP___ -1 13.5000 75.8000 TC 30 13.4637 75.9076 1 2 289
1935290N10083 1935 60 NI AS NOT_NAMED 1935-10-20 03:00:00 TS 13.5387 75.6837 main 0 0 _________PO___ -1 13.5775 75.5675 TC 30 13.5000 75.8000 1 5 289
1935290N10083 1935 60 NI AS NOT_NAMED 1935-10-20 06:00:00 TS 13.6448 75.3584 main 0 0 _________OP___ -1 13.7000 75.2000 TC 30 13.5895 75.5168 1 8 289
1935290N10083 1935 60 NI AS NOT_NAMED 1935-10-20 09:00:00 TS 13.7817 74.9415 main 0 0 _________PP___ -1 13.8501 74.7501 TC 30 13.7132 75.1329 1 9 289
1935290N10083 1935 60 NI AS NOT_NAMED 1935-10-20 12:00:00 TS 13.9276 74.5037 main 10 10 _________OP___ -1 14.0000 74.3000 TC 30 13.8552 74.7074 1 8 289
1935290N10083 1935 60 NI AS NOT_NAMED 1935-10-20 15:00:00 TS 14.0499 74.1349 main 44 39 _________PO___ -1 14.0999 73.9699 TC 30 14.0000 74.3000 1 7 290
1935290N10083 1935 60 NI AS NOT_NAMED 1935-10-20 18:00:00 TS 14.1665 73.8359 main 65 65 _________OP___ -1 14.2000 73.7000 TC 30 14.1330 73.9719 1 6 294
1935290N10083 1935 60 NI AS NOT_NAMED 1935-10-20 21:00:00 TS 14.3074 73.5475 main 85 78 _________PP___ -1 14.3500 73.4200 TC 30 14.2649 73.6750 1 6 299
1935290N10083 1935 60 NI AS NOT_NAMED 1935-10-21 00:00:00 TS 14.4447 73.3078 main 97 92 _________OP___ -1 14.5000 73.2000 TC 30 14.3893 73.4157 1 5 303
1935290N10083 1935 60 NI AS NOT_NAMED 1935-10-21 03:00:00 TS 14.5575 73.1425 main 102 102 _________PO___ -1 14.6149 73.0849 TC 30 14.5000 73.2000 1 3 305
1935290N10083 1935 60 NI AS NOT_NAMED 1935-10-21 06:00:00 TS 14.6446 73.0179 main 111 106 _________OP___ -1 14.7000 73.0000 TC 30 14.5892 73.0358 1 3 301
1935290N10083 1935 60 NI AS NOT_NAMED 1935-10-21 09:00:00 TS 14.7074 72.8849 main 116 116 _________PP___ -1 14.7500 72.8575 TC 30 14.6647 72.9123 1 3 296
1935290N10083 1935 60 NI AS NOT_NAMED 1935-10-21 12:00:00 TS 14.7665 72.7538 main 122 122 _________OP___ -1 14.8000 72.7000 TC 30 14.7330 72.8077 1 3 300
1935290N10083 1935 60 NI AS NOT_NAMED 1935-10-21 15:00:00 TS 14.8500 72.6250 main 143 141 _________PO___ -1 14.9000 72.5500 TC 30 14.8000 72.7000 1 3 303
1935290N10083 1935 60 NI AS NOT_NAMED 1935-10-21 18:00:00 TS 14.9354 72.4867 main 150 145 _________OP___ -1 15.0000 72.4000 TC 30 14.8708 72.5733 1 3 299
1935290N10083 1935 60 NI AS NOT_NAMED 1935-10-21 21:00:00 TS 14.9961 72.3512 main 154 154 _________PP___ -1 15.0500 72.2649 TC 30 14.9423 72.4374 1 3 293
1935290N10083 1935 60 NI AS NOT_NAMED 1935-10-22 00:00:00 TS 15.0588 72.1913 main 170 170 _________OP___ -1 15.1000 72.1000 TC 30 15.0177 72.2827 1 4 293
1935290N10083 1935 60 NI AS NOT_NAMED 1935-10-22 03:00:00 TS 15.1463 71.9825 main 190 187 _________PO___ -1 15.1925 71.8650 TC 30 15.1000 72.1000 1 5 294
1935290N10083 1935 60 NI AS NOT_NAMED 1935-10-22 06:00:00 TS 15.2505 71.7374 main 212 212 _________OP___ -1 15.3000 71.6000 TC 30 15.2010 71.8748 1 5 294
1935290N10083 1935 60 NI AS NOT_NAMED 1935-10-22 09:00:00 TS 15.3576 71.4826 main 228 228 _________PP___ -1 15.4075 71.3425 TC 30 15.3076 71.6226 1 5 293
1935290N10083 1935 60 NI AS NOT_NAMED 1935-10-22 12:00:00 TS 15.4552 71.2296 main 250 250 _________OP___ -1 15.5000 71.1000 TC 30 15.4104 71.3592 1 5 290
1935290N10083 1935 60 NI AS NOT_NAMED 1935-10-22 15:00:00 TS 15.5287 71.0000 main 270 270 _________PO___ -1 15.5574 70.8999 TC 30 15.5000 71.1000 1 4 287
1935290N10083 1935 60 NI AS NOT_NAMED 1935-10-22 18:00:00 TS 15.5821 70.7899 main 285 285 _________OP___ -1 15.6000 70.7000 TC 30 15.5642 70.8799 1 4 284
1935290N10083 1935 60 NI AS NOT_NAMED 1935-10-22 21:00:00 TS 15.6323 70.5649 main 305 305 _________PP___ -1 15.6500 70.4650 TC 30 15.6147 70.6648 1 5 282
1935290N10083 1935 60 NI AS NOT_NAMED 1935-10-23 00:00:00 TS 15.6790 70.3212 main 332 332 _________OP___ -1 15.7000 70.2000 TC 30 15.6579 70.4424 1 5 281
1935290N10083 1935 60 NI AS NOT_NAMED 1935-10-23 03:00:00 TS 15.7250 70.0537 main 353 353 _________PO___ -1 15.7500 69.9075 TC 30 15.7000 70.2000 1 6 280
1935290N10083 1935 60 NI AS NOT_NAMED 1935-10-23 06:00:00 TS 15.7771 69.7567 main 382 382 _________OP___ -1 15.8000 69.6000 TC 30 15.7541 69.9135 1 6 280
1935290N10083 1935 60 NI AS NOT_NAMED 1935-10-23 09:00:00 TS 15.8288 69.4500 main 413 413 _________PP___ -1 15.8500 69.2925 TC 30 15.8076 69.6076 1 6 280
1935290N10083 1935 60 NI AS NOT_NAMED 1935-10-23 12:00:00 TS 15.8786 69.1489 main 453 453 _________OP___ -1 15.9000 69.0000 TC 30 15.8573 69.2978 1 6 280
1935290N10083 1935 60 NI AS NOT_NAMED 1935-10-23 15:00:00 TS 15.9287 68.8713 main 474 474 _________PO___ -1 15.9574 68.7425 TC 30 15.9000 69.0000 1 5 280
1935290N10083 1935 60 NI AS NOT_NAMED 1935-10-23 18:00:00 TS 15.9660 68.6157 main 504 504 _________OP___ -1 16.0000 68.5000 TC 30 15.9320 68.7315 1 5 276
1935290N10083 1935 60 NI AS NOT_NAMED 1935-10-23 21:00:00 TS 15.9787 68.3599 main 526 526 _________PP___ -1 16.0000 68.2424 TC 30 15.9573 68.4774 1 5 273
1935290N10083 1935 60 NI AS NOT_NAMED 1935-10-24 00:00:00 TS 15.9895 68.1173 main 558 558 _________OP___ -1 16.0000 68.0000 TC 30 15.9789 68.2346 1 4 276
1935290N10083 1935 60 NI AS NOT_NAMED 1935-10-24 03:00:00 TS 16.0250 67.9000 main 579 579 _________PO___ -1 16.0499 67.8000 TC 30 16.0000 68.0000 1 4 280
1935290N10083 1935 60 NI AS NOT_NAMED 1935-10-24 06:00:00 TS 16.0645 67.6799 main 598 598 _________OP___ -1 16.1000 67.6000 TC 30 16.0290 67.7597 1 5 277
1935290N10083 1935 60 NI AS NOT_NAMED 1935-10-24 09:00:00 TS 16.0825 67.4350 main 627 627 _________PP___ -1 16.1075 67.3425 TC 30 16.0574 67.5275 1 5 273
1935290N10083 1935 60 NI AS NOT_NAMED 1935-10-24 12:00:00 TS 16.0911 67.2033 main 639 639 _________OP___ -1 16.1000 67.1000 TC 30 16.0822 67.3066 1 4 273
1935290N10083 1935 60 NI AS NOT_NAMED 1935-10-24 15:00:00 TS 16.1000 67.0213 main 651 651 _________PO___ -1 16.0999 66.9425 TC 30 16.1000 67.1000 1 3 272
1935290N10083 1935 60 NI AS NOT_NAMED 1935-10-24 18:00:00 TS 16.1035 66.8573 main 657 657 _________OP___ -1 16.1000 66.8000 TC 30 16.1071 66.9146 1 3 271
1935290N10083 1935 60 NI AS NOT_NAMED 1935-10-24 21:00:00 TS 16.1037 66.6750 main 669 669 _________PP___ -1 16.1000 66.6075 TC 30 16.1073 66.7425 1 4 270
1935290N10083 1935 60 NI AS NOT_NAMED 1935-10-25 00:00:00 TS 16.1020 66.4870 main 681 681 _________OP___ -1 16.1000 66.4000 TC 30 16.1039 66.5740 1 4 269
1935290N10083 1935 60 NI AS NOT_NAMED 1935-10-25 03:00:00 TS 16.1000 66.3000 main 694 694 _________PO___ -1 16.1000 66.2000 TC 30 16.1000 66.4000 1 4 269
1935290N10083 1935 60 NI AS NOT_NAMED 1935-10-25 06:00:00 TS 16.0980 66.1015 main 706 706 _________OP___ -1 16.1000 66.0000 TC 30 16.0959 66.2031 1 4 269
1935290N10083 1935 60 NI AS NOT_NAMED 1935-10-25 09:00:00 TS 16.0962 65.9000 main 719 719 _________PP___ -1 16.1000 65.8000 TC 30 16.0925 66.0000 1 4 270
1935290N10083 1935 60 NI AS NOT_NAMED 1935-10-25 12:00:00 TS 16.0964 65.6984 main 733 733 _________OP___ -1 16.1000 65.6000 TC 30 16.0928 65.7968 1 4 270
1935290N10083 1935 60 NI AS NOT_NAMED 1935-10-25 15:00:00 TS 16.0963 65.4962 main 747 747 _________PO___ -1 16.0925 65.3925 TC 30 16.1000 65.6000 1 4 272
1935290N10083 1935 60 NI AS NOT_NAMED 1935-10-25 18:00:00 TS 16.1089 65.3049 main 761 761 _________OP___ -1 16.1000 65.2000 TC 30 16.1178 65.4097 1 4 278
1935290N10083 1935 60 NI AS NOT_NAMED 1935-10-25 21:00:00 TS 16.1425 65.1350 main 775 767 _________PP___ -1 16.1425 65.0425 TC 30 16.1425 65.2275 1 3 284
1935290N10083 1935 60 NI AS NOT_NAMED 1935-10-26 00:00:00 TS 16.1855 64.9783 main 774 774 _________OP___ -1 16.2000 64.9000 TC 30 16.1709 65.0566 1 3 286
1935290N10083 1935 60 NI AS NOT_NAMED 1935-10-26 03:00:00 TS 16.2288 64.8213 main 789 789 _________PO___ -1 16.2575 64.7425 TC 30 16.2000 64.9000 1 3 285
1935290N10083 1935 60 NI AS NOT_NAMED 1935-10-26 06:00:00 TS 16.2625 64.6803 main 789 781 _________OP___ -1 16.3000 64.6000 TC 30 16.2249 64.7606 1 2 282
1935290N10083 1935 60 NI AS NOT_NAMED 1935-10-26 09:00:00 TS 16.2787 64.5675 main 781 771 _________PP___ -1 16.3075 64.5000 TC 30 16.2499 64.6350 1 2 277
1935290N10083 1935 60 NI AS NOT_NAMED 1935-10-26 12:00:00 TS 16.2875 64.4584 main 771 752 _________OP___ -1 16.3000 64.4000 TC 30 16.2749 64.5169 1 2 274
1935290N10083 1935 60 NI AS NOT_NAMED 1935-10-26 15:00:00 TS 16.2963 64.3250 main 752 742 _________PO___ -1 16.2925 64.2500 TC 30 16.3000 64.4000 1 2 276
1935290N10083 1935 60 NI AS NOT_NAMED 1935-10-26 18:00:00 TS 16.3143 64.2025 main 742 732 _________OP___ -1 16.3000 64.1000 TC 30 16.3251 64.2794 1 2 282
1935290N10083 1935 60 NI AS NOT_NAMED 1935-10-26 21:00:00 TS 16.3461 64.0880 main 732 718 _________PP___ -1 16.3400 63.9875 TC 30 16.3501 64.1550 1 2 288
1935290N10083 1935 60 NI AS NOT_NAMED 1935-10-27 00:00:00 TS 16.3834 63.9854 main 718 708 _________OP___ -1 16.4000 63.9000 TC 30 16.3751 64.0282 1 2 287
1935290N10083 1935 60 NI AS NOT_NAMED 1935-10-27 03:00:00 NR 16.4000 63.9000 main 708 __________O___ -1 TC 16.4000 63.9000 1 2 282

About IBTrACS Database

This database is a web-friendly format of International Best Track Archive for Climate Stewardship (IBTrACS), a global best track data archive curated by NOAA dating back to 1842.

Updated: 2021-12-03